• Join FlightAware (Why Join?)
  • Login
  • US Flag 
10:47PM EDT


 

Airport Tracker/Info


-or-


 

Live Flight TrackerFlight Track Log ✈ DAL131 ✈ 06-May-2013 ✈ EDDM / MUC - KATL

Flight Track Log - Related Links

Times and Time Zones

All times are in EDT time to prevent confusion due to time zone crossing. See the DAL131 flight status page for this flight to view local times or setup timezone preferences in your user account.

Time Position Orientation Groundspeed Altitude Reporting Facility
EDT Latitude Longitude Course Direction KTS MPH feet Rate Location/Type
07:43AM 48.4537 11.3854 294° West  Level FlightAware Approximate
07:44AM 48.5024 11.2186 294° West  Level FlightAware Approximate
07:47AM 48.3480 11.8290 82° East 194 223 2,700  Level FlightAware
07:47AM 48.3500 11.8630 85° East 195 224 3,700 2,040 Climbing FlightAware
07:47AM 48.3540 11.9030 81° East 200 230 4,600 1,380 Climbing FlightAware
07:48AM 48.3560 11.9480 86° East 227 261 5,100 720 Climbing FlightAware
07:48AM 48.3510 11.9630 117° Southeast 244 281 5,100 1,200 Level FlightAware
07:48AM 48.3390 11.9790 138° Southeast 249 287 5,600 2,100 Climbing FlightAware
07:49AM 48.3090 12.0080 147° Southeast 249 287 6,700 1,920 Climbing FlightAware
07:49AM 48.2800 12.0250 159° South 272 313 7,400 1,380 Climbing FlightAware
07:50AM 48.2430 12.0040 201° Southwest 315 362 8,000 1,200 Climbing FlightAware
07:50AM 48.2310 11.9760 237° Southwest 329 379 8,300 1,500 Climbing FlightAware
07:50AM 48.2180 11.9180 251° West 351 404 9,000 1,500 Climbing FlightAware
07:51AM 48.2100 11.8850 250° West 366 421 9,300 1,860 Climbing FlightAware
07:51AM 48.1830 11.7740 250° West 379 436 10,900 2,220 Climbing FlightAware
07:52AM 48.1570 11.6770 248° West 390 449 12,500 2,280 Climbing FlightAware
07:53AM 48.1250 11.5600 248° West 397 457 14,200 2,160 Climbing FlightAware
07:54AM 48.0970 11.4580 248° West 405 466 15,600 2,100 Climbing FlightAware
07:54AM 48.0690 11.3520 248° West 413 475 17,000 1,920 Climbing FlightAware
07:55AM 48.0360 11.2290 248° West 423 487 18,400 1,800 Climbing FlightAware
07:56AM 48.0070 11.1200 248° West 435 501 19,600 1,680 Climbing FlightAware
07:56AM 47.9770 10.9930 251° West 441 507 20,800 1,680 Climbing FlightAware
07:57AM 47.9550 10.8720 255° West 449 517 22,000 1,680 Climbing FlightAware
07:58AM 47.9330 10.7510 255° West 454 522 23,100 1,500 Climbing FlightAware
07:58AM 47.9090 10.6150 255° West 457 526 24,200 1,380 Climbing FlightAware
07:59AM 47.8870 10.4940 255° West 463 533 25,100 240 Climbing FlightAware
08:02AM 48.0177 10.1102 297° West  Level Estimated
08:03AM 48.0722 9.9485 297° West  Level Estimated
08:04AM 48.1265 9.7865 297° West  Level Estimated
08:05AM 48.1805 9.6242 297° West  Level Estimated
08:06AM 48.2343 9.4615 296° West  Level Estimated
08:07AM 48.2878 9.2985 296° West  Level Estimated
08:08AM 48.3412 9.1352 296° West  Level Estimated
08:09AM 48.3943 8.9715 296° West  Level Estimated
08:10AM 48.4471 8.8075 296° West  Level Estimated
08:11AM 48.4998 8.6431 296° West  Level Estimated
08:12AM 48.5521 8.4787 296° West  Level Estimated
08:13AM 48.6041 8.3139 296° West  Level Estimated
08:14AM 48.6560 8.1488 295° West  Level Estimated
08:15AM 48.7076 7.9834 295° West  Level Estimated
08:16AM 48.7589 7.8176 295° West  Level Estimated
08:17AM 48.8101 7.6515 295° West  Level Estimated
08:18AM 48.8610 7.4850 295° West  Level Estimated
08:19AM 48.9116 7.3182 295° West  Level Estimated
08:20AM 48.9620 7.1511 295° West  Level Estimated
08:20AM 47.8240 6.4940 295° West 481 554 29,900  Level FlightAware
08:21AM 47.8430 6.3770 284° West 480 552 29,900  Level FlightAware
08:21AM 47.8660 6.2430 284° West 481 554 29,900  Level FlightAware
08:22AM 47.8880 6.1090 284° West 483 556 29,900  Level FlightAware
08:23AM 47.9170 5.9710 287° West 487 560 29,900  Level FlightAware
08:23AM 47.9450 5.8560 290° West 486 559 29,900  Level FlightAware
08:24AM 47.9852 5.6534 287° West 488 562 29,900  Level FlightAware ADS-B
08:25AM 48.0143 5.4875 285° West 488 562 29,900  Level FlightAware ADS-B
08:26AM 48.0355 5.3646 285° West 488 562 29,900  Level FlightAware ADS-B
08:26AM 48.0528 5.2660 285° West 488 562 29,900  Level FlightAware ADS-B
08:27AM 48.0707 5.1649 285° West 483 556 29,900  Level FlightAware ADS-B
08:27AM 48.0912 5.0489 285° West 482 555 29,900  Level FlightAware ADS-B
08:28AM 48.1087 4.9482 285° West 480 552 29,900  Level FlightAware ADS-B
08:29AM 48.1310 4.8170 284° West 479 551 29,900  Level FlightAware
08:29AM 48.1409 4.7610 285° West 480 552 29,900  Level FlightAware ADS-B
08:29AM 48.1624 4.6336 284° West 482 555 29,900  Level FlightAware ADS-B
08:30AM 48.1793 4.5341 284° West 484 557 29,900  Level FlightAware ADS-B
08:31AM 48.2018 4.3992 284° West 484 557 29,900  Level FlightAware ADS-B
08:31AM 48.2210 4.2860 284° West 486 559 29,900  Level FlightAware
08:31AM 48.2268 4.2487 283° West 486 559 29,900  Level FlightAware ADS-B
08:32AM 48.2436 4.1470 284° West 486 559 29,900  Level FlightAware ADS-B
08:33AM 48.2670 4.0060 284° West 487 560 29,900 60 Level FlightAware
08:33AM 48.2900 3.8590 283° West 488 562 30,000  Climbing FlightAware
08:34AM 48.3120 3.7270 284° West 487 560 29,900 -120 Descending FlightAware
08:34AM 48.3236 3.6514 283° West 486 559 29,900  Level FlightAware ADS-B
08:35AM 48.3394 3.5517 283° West 484 557 29,900  Level FlightAware ADS-B
08:35AM 48.3557 3.4491 283° West 481 554 29,900  Level FlightAware ADS-B
08:36AM 48.3710 3.3510 283° West 479 551 29,900  Level FlightAware ADS-B
08:37AM 48.3909 3.2236 283° West 479 551 29,900  Level FlightAware ADS-B
08:37AM 48.4063 3.1240 283° West 474 545 29,900  Level FlightAware ADS-B
08:38AM 48.4211 3.0271 283° West 472 543 29,900 60 Level FlightAware ADS-B
08:38AM 48.4383 2.9274 285° West 471 542 30,000 60 Climbing FlightAware ADS-B
08:39AM 48.4501 2.8257 280° West 471 542 30,000  Level FlightAware ADS-B
08:39AM 48.4584 2.7283 277° West 467 537 30,000  Level FlightAware ADS-B
08:40AM 48.4678 2.6290 278° West 466 536 30,000  Level FlightAware ADS-B
08:40AM 48.4813 2.4957 279° West 465 535 30,000  Level FlightAware ADS-B
08:41AM 48.4917 2.3973 279° West 464 534 30,000 -120 Level FlightAware ADS-B
08:42AM 48.5021 2.2960 279° West 461 531 29,900  Descending FlightAware ADS-B
08:42AM 48.5119 2.1996 279° West 460 529 30,000 60 Climbing FlightAware ADS-B
08:43AM 48.5230 2.0857 278° West 459 528 30,000 -1,680 Level FlightAware ADS-B
08:43AM 48.5214 2.0243 278° West 470 541 28,400  Descending FlightAware UK
08:43AM 48.5340 1.9657 278° West 459 528 30,000  Climbing FlightAware ADS-B
08:43AM 48.5289 1.9284 278° West 470 541 28,400  Descending FlightAware UK
08:44AM 48.5426 1.8699 278° West 458 527 30,000 2,040 Climbing FlightAware ADS-B
08:44AM 48.5512 1.7730 278° West 456 525 30,000 -1,920 Level FlightAware ADS-B
08:45AM 48.5477 1.7214 278° West 472 543 28,400  Descending FlightAware UK
08:45AM 48.5599 1.6742 278° West 455 524 30,000  Climbing FlightAware ADS-B
08:45AM 48.5557 1.6269 278° West 470 541 28,400  Descending FlightAware UK
08:45AM 48.5682 1.5802 278° West 454 522 30,000 2,220 Climbing FlightAware ADS-B
08:46AM 48.5765 1.4842 277° West 453 521 30,000 -2,100 Level FlightAware ADS-B
08:46AM 48.5723 1.4396 277° West 472 543 28,400  Descending FlightAware UK
08:46AM 48.5850 1.3854 277° West 450 518 30,000  Climbing FlightAware ADS-B
08:47AM 48.5849 1.2915 277° West 476 548 28,400  Descending FlightAware UK
08:47AM 48.5940 1.2760 277° West 447 514 30,000 7,380 Climbing FlightAware
08:47AM 48.5970 1.2419 278° West 448 516 30,000 -3,840 Level FlightAware ADS-B
08:47AM 48.5928 1.1990 278° West 478 550 28,400  Descending FlightAware UK
08:48AM 48.6063 1.1323 278° West 445 512 30,000  Climbing FlightAware ADS-B
08:48AM 48.6036 1.0709 278° West 476 548 28,400  Descending FlightAware UK
08:48AM 48.6145 1.0336 278° West 443 510 30,000  Climbing FlightAware ADS-B
08:48AM 48.6096 0.9976 278° West 472 543 28,400 -2,520 Descending FlightAware UK
08:49AM 48.6155 0.9248 277° West 466 536 28,400 2,820 Level FlightAware UK
08:49AM 48.6260 0.8900 277° West 437 503 30,000  Climbing FlightAware
08:49AM 48.6228 0.8341 277° West 464 534 28,400  Descending FlightAware UK
08:50AM 48.6360 0.7690 277° West 438 504 30,000  Climbing FlightAware
08:50AM 48.6319 0.7266 277° West 462 532 28,400  Descending FlightAware UK
08:50AM 48.6470 0.6360 277° West 440 506 30,000  Climbing FlightAware
08:51AM 48.6480 0.5270 277° West 466 536 28,400  Descending FlightAware UK
08:51AM 48.6560 0.5140 277° West 441 507 30,000 3,420 Climbing FlightAware
08:52AM 48.6626 0.4289 277° West 442 509 30,000 -1,920 Level FlightAware ADS-B
08:52AM 48.6607 0.3625 277° West 470 541 28,400  Descending FlightAware UK
08:52AM 48.6729 0.2938 277° West 443 510 30,000  Climbing FlightAware ADS-B
08:53AM 48.6706 0.2333 277° West 472 543 28,400 -1,860 Descending FlightAware UK
08:53AM 48.6776 0.1419 277° West 474 545 28,400 2,400 Level FlightAware UK
08:53AM 48.6875 0.1008 277° West 443 510 30,000  Climbing FlightAware ADS-B
08:54AM 48.6874 0.0143 277° West 474 545 28,400  Descending FlightAware UK
08:54AM 48.6960 -0.0090 277° West 441 507 30,000 1,860 Climbing FlightAware
08:55AM 48.7060 -0.1470 276° West 439 505 30,000 -1,620 Level FlightAware
08:55AM 48.7020 -0.1872 276° West 468 539 28,400 -2,940 Descending FlightAware UK
08:55AM 48.7059 -0.2424 276° West 470 541 28,400 3,840 Level FlightAware UK
08:55AM 48.7140 -0.2680 276° West 439 505 30,000  Climbing FlightAware
08:56AM 48.7115 -0.3338 276° West 468 539 28,400  Descending FlightAware UK
08:56AM 48.7240 -0.4010 276° West 439 505 30,000  Climbing FlightAware
08:57AM 48.7234 -0.4976 276° West 466 536 28,400  Descending FlightAware UK
08:57AM 48.7310 -0.5080 276° West 439 505 30,000  Climbing FlightAware
08:57AM 48.7297 -0.5891 276° West 466 536 28,400  Descending FlightAware UK
08:57AM 48.7410 -0.6530 276° West 440 506 30,000  Climbing FlightAware
08:58AM 48.7398 -0.7356 276° West 466 536 28,400  Descending FlightAware UK
08:58AM 48.7490 -0.7720 276° West 441 507 30,000  Climbing FlightAware
08:58AM 48.7462 -0.8277 276° West 470 541 28,400  Descending FlightAware UK
08:59AM 48.7553 -0.8693 276° West 442 509 30,000  Climbing FlightAware ADS-B
08:59AM 48.7536 -0.9388 276° West 470 541 28,400 -1,920 Descending FlightAware UK
08:59AM 48.7584 -1.0127 276° West 468 539 28,400 2,700 Level FlightAware UK
09:00AM 48.7670 -1.0470 276° West 441 507 30,000 1,860 Climbing FlightAware
09:00AM 48.7750 -1.1680 276° West 441 507 30,000 -1,800 Level FlightAware
09:01AM 48.7710 -1.2151 276° West 470 541 28,400 -2,940 Descending FlightAware UK
09:01AM 48.7746 -1.2697 276° West 470 541 28,400 4,800 Level FlightAware UK
09:01AM 48.7820 -1.2790 276° West 441 507 30,000  Climbing FlightAware
09:02AM 48.7829 -1.3992 276° West 468 539 28,400  Descending FlightAware UK
09:02AM 48.7920 -1.4390 276° West 440 506 30,000  Climbing FlightAware
09:02AM 48.7908 -1.5279 276° West 466 536 28,400 -2,400 Descending FlightAware UK
09:03AM 48.7941 -1.5833 275° West 468 539 28,400 4,140 Level FlightAware UK
09:03AM 48.8000 -1.5870 275° West 441 507 30,000  Climbing FlightAware
09:03AM 48.8006 -1.6938 275° West 468 539 28,400  Descending FlightAware UK
09:03AM 48.8090 -1.7230 275° West 441 507 30,000  Climbing FlightAware
09:04AM 48.8082 -1.8231 275° West 466 536 28,400  Descending FlightAware UK
09:04AM 48.8160 -1.8450 275° West 441 507 30,000  Climbing FlightAware
09:05AM 48.8158 -1.9521 275° West 466 536 28,400  Descending FlightAware UK
09:05AM 48.8240 -1.9870 275° West 443 510 30,000  Climbing FlightAware
09:05AM 48.8210 -2.0449 275° West 466 536 28,400 -2,580 Descending FlightAware UK
09:05AM 48.8240 -2.1008 275° West 468 539 28,400 4,800 Level FlightAware UK
09:05AM 48.8300 -2.1040 275° West 444 511 30,000  Climbing FlightAware
09:06AM 48.8271 -2.1569 275° West 468 539 28,400  Descending FlightAware UK
09:06AM 48.8380 -2.2510 275° West 445 512 30,000  Climbing FlightAware
09:07AM 48.8374 -2.3440 275° West 470 541 28,400  Descending FlightAware UK
09:07AM 48.8450 -2.3770 275° West 445 512 30,000  Climbing FlightAware
09:07AM 48.8433 -2.4556 275° West 470 541 28,400  Descending FlightAware UK
09:07AM 48.8520 -2.5010 275° West 444 511 30,000  Climbing FlightAware
09:08AM 48.8490 -2.5670 275° West 472 543 28,400 -2,400 Descending FlightAware UK
09:08AM 48.8518 -2.6231 274° West 474 545 28,400 4,140 Level FlightAware UK
09:08AM 48.8580 -2.6330 274° West 444 511 30,000  Climbing FlightAware
09:09AM 48.8555 -2.6978 274° West 472 543 28,400  Descending FlightAware UK
09:09AM 48.8660 -2.7810 274° West 443 510 30,000  Climbing FlightAware
09:10AM 48.8648 -2.8838 274° West 470 541 28,400  Descending FlightAware UK
09:10AM 48.8720 -2.9060 274° West 442 509 30,000 2,040 Climbing FlightAware
09:10AM 48.8780 -3.0270 274° West 443 510 30,000 -1,620 Level FlightAware
09:11AM 48.8749 -3.0885 274° West 468 539 28,400 -2,580 Descending FlightAware UK
09:11AM 48.8774 -3.1436 274° West 468 539 28,400 3,840 Level FlightAware UK
09:11AM 48.8840 -3.1630 274° West 443 510 30,000 3,180 Climbing FlightAware
09:12AM 48.8900 -3.2870 274° West 437 503 30,900 1,500 Climbing FlightAware
09:12AM 48.8960 -3.4070 274° West 427 491 32,000 240 Climbing FlightAware
09:13AM 48.8930 -3.4900 274° West 464 534 31,200 1,320 Descending FlightAware UK
09:13AM 48.9020 -3.5430 274° West 419 482 33,000 1,860 Climbing FlightAware
09:14AM 48.9070 -3.6590 274° West 418 481 33,000 -1,380 Level FlightAware
09:14AM 48.9039 -3.7537 274° West 458 527 31,400  Descending FlightAware UK
09:15AM 48.9120 -3.7900 274° West 418 481 33,000  Climbing FlightAware
09:15AM 48.9076 -3.8418 274° West 456 525 31,400  Descending FlightAware UK
09:15AM 48.9170 -3.9040 274° West 413 475 33,000  Climbing FlightAware
09:16AM 48.9126 -3.9641 274° West 452 520 31,400 -2,700 Descending FlightAware UK
09:16AM 48.9148 -4.0160 274° West 450 518 31,400 3,540 Level FlightAware UK
09:16AM 48.9230 -4.0390 274° West 408 470 33,000 1,920 Climbing FlightAware
09:17AM 48.9270 -4.1540 273° West 409 471 33,000 -1,740 Level FlightAware
09:17AM 48.9216 -4.2041 273° West 450 518 31,400  Descending FlightAware UK
09:17AM 48.9320 -4.2690 273° West 413 475 33,000  Climbing FlightAware
09:18AM 48.9262 -4.3258 273° West 456 525 31,400 -2,640 Descending FlightAware UK
09:18AM 48.9280 -4.3783 273° West 1 1 31,400 3,660 Level FlightAware UK
09:18AM 48.9370 -4.3950 273° West 416 479 33,000  Climbing FlightAware
09:18AM 48.9303 -4.4484 273° West 1 1 31,400 -2,880 Descending FlightAware UK
09:19AM 48.9323 -4.5012 273° West 456 525 31,400 3,960 Level FlightAware UK
09:19AM 48.9410 -4.5120 273° West 418 481 33,000  Climbing FlightAware
09:19AM 48.9347 -4.5718 273° West 456 525 31,400 -2,700 Descending FlightAware UK
09:19AM 48.9364 -4.6250 273° West 456 525 31,400 3,540 Level FlightAware UK
09:19AM 48.9460 -4.6470 273° West 420 483 33,000  Climbing FlightAware
09:20AM 48.9394 -4.7139 273° West 458 527 31,400 -2,520 Descending FlightAware UK
09:20AM 48.9412 -4.7673 273° West 458 527 31,400 5,040 Level FlightAware UK
09:20AM 48.9500 -4.7640 273° West 422 486 33,000  Climbing FlightAware
09:20AM 48.9429 -4.8202 273° West 458 527 31,400 -2,760 Descending FlightAware UK
09:21AM 48.9445 -4.8737 273° West 456 525 31,400 3,420 Level FlightAware UK
09:21AM 48.9540 -4.8950 273° West 423 487 33,000  Climbing FlightAware
09:21AM 48.9471 -4.9630 273° West 456 525 31,400 -2,580 Descending FlightAware UK
09:22AM 48.9489 -5.0165 273° West 454 522 31,400 4,800 Level FlightAware UK
09:22AM 48.9590 -5.0150 273° West 424 488 33,000  Climbing FlightAware
09:22AM 48.9506 -5.0703 273° West 454 522 31,400 -2,880 Descending FlightAware UK
09:22AM 48.9520 -5.1241 272° West 454 522 31,400 3,960 Level FlightAware UK
09:22AM 48.9620 -5.1350 272° West 426 490 33,000  Climbing FlightAware
09:23AM 48.9542 -5.1959 272° West 454 522 31,400 -2,700 Descending FlightAware UK
09:23AM 48.9557 -5.2498 272° West 454 522 31,400 3,540 Level FlightAware UK
09:23AM 48.9660 -5.2730 272° West 427 491 33,000  Climbing FlightAware
09:23AM 48.9577 -5.3219 272° West 454 522 31,400 -2,940 Descending FlightAware UK
09:24AM 48.9592 -5.3761 272° West 458 527 31,400 3,840 Level FlightAware UK
09:24AM 48.9700 -5.3870 272° West 428 493 33,000  Climbing FlightAware
09:24AM 48.9611 -5.4484 272° West 456 525 31,400 -2,760 Descending FlightAware UK
09:24AM 48.9624 -5.5028 272° West 456 525 31,400 3,420 Level FlightAware UK
09:24AM 48.9740 -5.5270 272° West 429 494 33,000  Climbing FlightAware
09:25AM 48.9648 -5.5933 272° West 456 525 31,400 -2,580 Descending FlightAware UK
09:25AM 48.9662 -5.6476 272° West 456 525 31,400 4,800 Level FlightAware UK
09:25AM 48.9770 -5.6470 272° West 429 494 33,000  Climbing FlightAware
09:25AM 48.9674 -5.7019 272° West 456 525 31,400 -2,880 Descending FlightAware UK
09:26AM 48.9687 -5.7563 272° West 456 525 31,400 3,960 Level FlightAware UK
09:26AM 48.9810 -5.7670 272° West 430 495 33,000  Climbing FlightAware
09:26AM 48.9704 -5.8287 272° West 456 525 31,400 -2,700 Descending FlightAware UK
09:26AM 48.9716 -5.8826 272° West 456 525 31,400 3,540 Level FlightAware UK
09:26AM 48.9840 -5.8990 272° West 430 495 33,000  Climbing FlightAware
09:27AM 48.9732 -5.9551 272° West 452 520 31,400 -2,940 Descending FlightAware UK
09:27AM 48.9744 -6.0096 272° West 454 522 31,400 3,840 Level FlightAware UK
09:27AM 48.9870 -6.0200 272° West 430 495 33,000  Climbing FlightAware
09:27AM 48.9761 -6.0821 272° West 456 525 31,400 -2,760 Descending FlightAware UK
09:28AM 48.9773 -6.1365 272° West 456 525 31,400  Level FlightAware UK
09:28AM 48.9783 -6.1910 272° West 456 525 31,400 4,800 Level FlightAware UK
09:28AM 48.9910 -6.1900 272° West 431 496 33,000  Climbing FlightAware
09:28AM 48.9797 -6.2637 272° West 456 525 31,400 -2,400 Descending FlightAware UK
09:29AM 48.9807 -6.3183 272° West 454 522 31,400 4,140 Level FlightAware UK
09:29AM 48.9940 -6.3270 272° West 431 496 33,000  Climbing FlightAware
09:29AM 48.9819 -6.3909 272° West 452 520 31,400 -2,640 Descending FlightAware UK
09:29AM 48.9831 -6.4454 272° West 456 525 31,400 4,560 Level FlightAware UK
09:29AM 48.9980 -6.4450 272° West 432 497 33,000  Climbing FlightAware
09:30AM 48.9859 -6.4999 272° West 454 522 31,400 -2,940 Descending FlightAware UK
09:30AM 48.9887 -6.5544 275° West 454 522 31,400 3,840 Level FlightAware UK
09:30AM 49.0030 -6.5640 275° West 431 496 33,000  Climbing FlightAware
09:30AM 48.9919 -6.6269 275° West 452 520 31,400 -2,760 Descending FlightAware UK
09:31AM 48.9939 -6.6815 273° West 454 522 31,400 3,420 Level FlightAware UK
09:31AM 49.0090 -6.7040 273° West 431 496 33,000  Climbing FlightAware
09:31AM 48.9972 -6.7723 273° West 456 525 31,400 -2,580 Descending FlightAware UK
09:32AM 48.9991 -6.8268 273° West 454 522 31,400 4,800 Level FlightAware UK
09:32AM 49.0140 -6.8210 273° West 431 496 33,000  Climbing FlightAware
09:32AM 49.0009 -6.8812 273° West 454 522 31,400 -2,880 Descending FlightAware UK
09:32AM 49.0027 -6.9357 273° West 454 522 31,400 3,300 Level FlightAware UK
09:32AM 49.0190 -6.9600 273° West 431 496 33,000  Climbing FlightAware
09:33AM 49.0057 -7.0259 273° West 450 518 31,400 -2,640 Descending FlightAware UK
09:33AM 49.0075 -7.0803 273° West 452 520 31,400 4,560 Level FlightAware UK
09:33AM 49.0230 -7.0800 273° West 431 496 33,000  Climbing FlightAware
09:33AM 49.0094 -7.1348 273° West 454 522 31,400 -2,940 Descending FlightAware UK
09:34AM 49.0111 -7.1893 273° West 456 525 31,400 4,800 Level FlightAware UK
09:34AM 49.0270 -7.1770 273° West 431 496 33,000  Climbing FlightAware
09:34AM 49.0128 -7.2438 273° West 454 522 31,400 -2,880 Descending FlightAware UK
09:34AM 49.0146 -7.2984 273° West 452 520 31,400  Level FlightAware UK
09:34AM 49.0163 -7.3530 273° West 450 518 31,400  Level FlightAware UK
09:35AM 49.0180 -7.4076 273° West 452 520 31,400 4,140 Level FlightAware UK
09:35AM 49.0350 -7.4020 273° West 432 497 33,000  Climbing FlightAware
09:35AM 49.0202 -7.4805 273° West 456 525 31,400 -2,640 Descending FlightAware UK
09:35AM 49.0218 -7.5353 273° West 452 520 31,400  Level FlightAware UK
09:36AM 49.0235 -7.5901 273° West 448 516 31,400  Level FlightAware UK
09:36AM 49.0252 -7.6450 273° West 448 516 31,400 3,180 Level FlightAware UK
09:36AM 49.0430 -7.6710 273° West 436 502 33,000  Climbing FlightAware
09:37AM 49.0277 -7.7368 273° West 448 516 31,400 -2,700 Descending FlightAware UK
09:37AM 49.0292 -7.7920 272° West 450 518 31,400 3,540 Level FlightAware UK
09:37AM 49.0470 -7.8010 272° West 437 503 33,000  Climbing FlightAware
09:37AM 49.0312 -7.8659 272° West 450 518 31,400 -2,940 Descending FlightAware UK
09:38AM 49.0326 -7.9214 272° West 452 520 31,400 3,840 Level FlightAware UK
09:38AM 49.0490 -7.9050 272° West 437 503 33,000  Climbing FlightAware
09:38AM 49.0345 -7.9956 272° West 452 520 31,400 -2,760 Descending FlightAware UK
09:38AM 49.0358 -8.0507 272° West 452 520 31,400 4,140 Level FlightAware UK
09:38AM 49.0510 -8.0100 272° West 437 503 33,000  Climbing FlightAware
09:39AM 49.0377 -8.1252 272° West 456 525 31,400 -2,640 Descending FlightAware UK
09:39AM 49.0392 -8.1812 272° West 458 527 31,400 4,560 Level FlightAware UK
09:39AM 49.0540 -8.1150 272° West 437 503 33,000  Climbing FlightAware
09:39AM 49.0405 -8.2372 272° West 454 522 31,400  Descending FlightAware UK
09:39AM 49.0600 -8.2490 272° West 442 509 33,000  Climbing FlightAware
09:40AM 49.0426 -8.3304 272° West 454 522 31,400 -2,940 Descending FlightAware UK
09:40AM 49.0437 -8.3863 272° West 454 522 31,400 3,840 Level FlightAware UK
09:40AM 49.0630 -8.3750 272° West 442 509 33,000  Climbing FlightAware
09:40AM 49.0452 -8.4610 272° West 456 525 31,400 -2,760 Descending FlightAware UK
09:41AM 49.0464 -8.5170 272° West 454 522 31,400 3,420 Level FlightAware UK
09:41AM 49.0670 -8.5220 272° West 443 510 33,000  Climbing FlightAware
09:41AM 49.0483 -8.6104 272° West 456 525 31,400 -2,580 Descending FlightAware UK
09:42AM 49.0496 -8.6664 272° West 456 525 31,400  Level FlightAware UK
09:42AM 49.0507 -8.7225 272° West 454 522 31,400 3,000 Level FlightAware UK
09:42AM 49.0710 -8.7480 272° West 443 510 33,000  Climbing FlightAware
09:42AM 49.0524 -8.8160 272° West 454 522 31,400 -2,880 Descending FlightAware UK
09:43AM 49.0533 -8.8721 272° West 460 529 31,400  Level FlightAware UK
09:43AM 49.0543 -8.9282 272° West 458 527 31,400 4,560 Level FlightAware UK
09:43AM 49.0740 -8.9190 272° West 444 511 33,000  Climbing FlightAware
09:43AM 49.0552 -8.9843 272° West 456 525 31,400  Descending FlightAware UK
09:44AM 49.0760 -9.0250 272° West 444 511 33,000 1,440 Climbing FlightAware
09:44AM 49.0770 -9.1320 271° West 444 511 33,000  Level FlightAware
09:45AM 49.0780 -9.2650 271° West 444 511 33,000  Level FlightAware
09:46AM 49.0800 -9.3720 272° West 444 511 33,000  Level FlightAware
09:46AM 49.0810 -9.4780 271° West 444 511 33,000  Level FlightAware
09:47AM 49.0820 -9.5850 271° West 444 511 33,000  Level FlightAware
09:48AM 49.0830 -9.6920 271° West 444 511 33,000  Level FlightAware
09:49AM 49.0850 -9.8250 271° West 444 511 33,000  Level FlightAware
09:49AM 49.0860 -9.9310 271° West 444 511 33,000  Level FlightAware
09:50AM 49.0870 -10.0380 271° West 444 511 33,000  Level FlightAware
09:51AM 49.0880 -10.1450 271° West 444 511 33,000  Level FlightAware
09:51AM 49.0890 -10.2510 271° West 444 511 33,000  Level FlightAware
09:52AM 49.0910 -10.3580 272° West 444 511 33,000  Level FlightAware
09:55AM 49.1612 -10.8164 283° West  Level Estimated
09:56AM 49.1883 -10.9965 283° West  Level Estimated
09:57AM 49.2151 -11.1768 283° West  Level Estimated
09:58AM 49.2416 -11.3573 283° West  Level Estimated
09:59AM 49.2678 -11.5379 283° West  Level Estimated
10:00AM 49.2937 -11.7188 282° West  Level Estimated
10:01AM 49.3193 -11.8999 282° West  Level Estimated
10:02AM 49.3447 -12.0811 282° West  Level Estimated
10:03AM 49.3698 -12.2626 282° West  Level Estimated
10:04AM 49.3946 -12.4442 282° West  Level Estimated
10:05AM 49.4191 -12.6260 282° West  Level Estimated
10:06AM 49.4433 -12.8080 282° West  Level Estimated
10:07AM 49.4672 -12.9901 281° West  Level Estimated
10:08AM 49.4909 -13.1725 281° West  Level Estimated
10:09AM 49.5142 -13.3550 281° West  Level Estimated
10:10AM 49.5373 -13.5377 281° West  Level Estimated
10:11AM 49.5601 -13.7205 281° West  Level Estimated
10:12AM 49.5826 -13.9036 281° West  Level Estimated
10:13AM 49.6048 -14.0868 281° West  Level Estimated
10:14AM 49.6267 -14.2701 281° West  Level Estimated
10:15AM 49.6484 -14.4536 280° West  Level Estimated
10:16AM 49.6697 -14.6373 280° West  Level Estimated
10:17AM 49.6907 -14.8206 280° West  Level Estimated
10:18AM 49.7114 -15.0039 280° West  Level Estimated
10:19AM 49.7318 -15.1875 280° West  Level Estimated
10:20AM 49.7519 -15.3712 280° West  Level Estimated
10:21AM 49.7717 -15.5550 280° West  Level Estimated
10:22AM 49.7912 -15.7390 279° West  Level Estimated
10:23AM 49.8105 -15.9231 279° West  Level Estimated
10:24AM 49.8294 -16.1074 279° West  Level Estimated
10:25AM 49.8481 -16.2918 279° West  Level Estimated
10:26AM 49.8664 -16.4764 279° West  Level Estimated
10:27AM 49.8845 -16.6611 279° West  Level Estimated
10:28AM 49.9023 -16.8460 279° West  Level Estimated
10:29AM 49.9198 -17.0310 278° West  Level Estimated
10:30AM 49.9369 -17.2161 278° West  Level Estimated
10:31AM 49.9538 -17.4013 278° West  Level Estimated
10:32AM 49.9704 -17.5867 278° West  Level Estimated
10:33AM 49.9867 -17.7722 278° West  Level Estimated
10:34AM 50.0027 -17.9578 278° West  Level Estimated
10:35AM 50.0184 -18.1436 278° West  Level Estimated
10:36AM 50.0338 -18.3294 277° West  Level Estimated
10:37AM 50.0490 -18.5154 277° West  Level Estimated
10:38AM 50.0638 -18.7015 277° West  Level Estimated
10:39AM 50.0783 -18.8877 277° West  Level Estimated
10:40AM 50.0925 -19.0741 277° West  Level Estimated
10:41AM 50.1064 -19.2605 277° West  Level Estimated
10:42AM 50.1200 -19.4471 277° West  Level Estimated
10:43AM 50.1334 -19.6337 276° West  Level Estimated
10:44AM 50.1464 -19.8204 276° West  Level Estimated
10:45AM 50.1591 -20.0073 276° West  Level Estimated
10:46AM 50.1715 -20.1943 276° West  Level Estimated
10:47AM 50.1837 -20.3813 276° West  Level Estimated
10:48AM 50.1955 -20.5684 276° West  Level Estimated
10:49AM 50.2070 -20.7557 276° West  Level Estimated
10:50AM 50.2182 -20.9430 275° West  Level Estimated
10:51AM 50.2291 -21.1304 275° West  Level Estimated
10:52AM 50.2397 -21.3179 275° West  Level Estimated
10:53AM 50.2501 -21.5055 275° West  Level Estimated
10:54AM 50.2601 -21.6931 275° West  Level Estimated
10:55AM 50.2698 -21.8809 275° West  Level Estimated
10:56AM 50.2792 -22.0687 275° West  Level Estimated
10:57AM 50.2883 -22.2565 274° West  Level Estimated
10:58AM 50.2971 -22.4445 274° West  Level Estimated
10:59AM 50.3056 -22.6325 274° West  Level Estimated
11:00AM 50.3138 -22.8206 274° West  Level Estimated
11:01AM 50.3217 -23.0088 274° West  Level Estimated
11:02AM 50.3293 -23.1970 274° West  Level Estimated
11:03AM 50.3366 -23.3852 274° West  Level Estimated
11:04AM 50.3436 -23.5736 273° West  Level Estimated
11:05AM 50.3503 -23.7619 273° West  Level Estimated
11:06AM 50.3567 -23.9504 273° West  Level Estimated
11:07AM 50.3627 -24.1389 273° West  Level Estimated
11:08AM 50.3685 -24.3274 273° West  Level Estimated
11:09AM 50.3740 -24.5160 273° West  Level Estimated
11:10AM 50.3791 -24.7046 273° West  Level Estimated
11:11AM 50.3840 -24.8932 272° West  Level Estimated
11:12AM 50.3885 -25.0819 272° West  Level Estimated
11:13AM 50.3927 -25.2707 272° West  Level Estimated
11:14AM 50.3967 -25.4594 272° West  Level Estimated
11:15AM 50.4003 -25.6482 272° West  Level Estimated
11:16AM 50.4036 -25.8370 272° West  Level Estimated
11:17AM 50.4067 -26.0259 272° West  Level Estimated
11:18AM 50.4094 -26.2147 271° West  Level Estimated
11:19AM 50.4118 -26.4036 271° West  Level Estimated
11:20AM 50.4139 -26.5925 271° West  Level Estimated
11:21AM 50.4157 -26.7815 271° West  Level Estimated
11:22AM 50.4172 -26.9704 271° West  Level Estimated
11:23AM 50.4184 -27.1593 271° West  Level Estimated
11:24AM 50.4192 -27.3483 270° West  Level Estimated
11:25AM 50.4198 -27.5373 270° West  Level Estimated
11:26AM 50.4201 -27.7262 270° West  Level Estimated
11:27AM 50.4200 -27.9152 270° West  Level Estimated
11:28AM 50.4197 -28.1041 270° West  Level Estimated
11:29AM 50.4190 -28.2931 270° West  Level Estimated
11:30AM 50.4181 -28.4820 270° West  Level Estimated
11:31AM 50.4168 -28.6710 269° West  Level Estimated
11:32AM 50.4152 -28.8599 269° West  Level Estimated
11:33AM 50.4134 -29.0488 269° West  Level Estimated
11:34AM 50.4112 -29.2377 269° West  Level Estimated
11:35AM 50.4087 -29.4266 269° West  Level Estimated
11:36AM 50.4059 -29.6155 269° West  Level Estimated
11:37AM 50.4028 -29.8043 269° West  Level Estimated
11:38AM 50.3994 -29.9931 268° West  Level Estimated
11:39AM 50.3957 -30.1819 268° West  Level Estimated
11:40AM 50.3917 -30.3706 268° West  Level Estimated
11:41AM 50.3873 -30.5594 268° West  Level Estimated
11:42AM 50.3827 -30.7477 268° West  Level Estimated
11:43AM 50.3778 -30.9361 268° West  Level Estimated
11:44AM 50.3726 -31.1243 268° West  Level Estimated
11:45AM 50.3670 -31.3126 267° West  Level Estimated
11:46AM 50.3612 -31.5008 267° West  Level Estimated
11:47AM 50.3551 -31.6889 267° West  Level Estimated
11:48AM 50.3486 -31.8770 267° West  Level Estimated
11:49AM 50.3419 -32.0651 267° West  Level Estimated
11:50AM 50.3348 -32.2531 267° West  Level Estimated
11:51AM 50.3275 -32.4410 267° West  Level Estimated
11:52AM 50.3198 -32.6289 266° West  Level Estimated
11:53AM 50.3119 -32.8167 266° West  Level Estimated
11:54AM 50.3036 -33.0045 266° West  Level Estimated
11:55AM 50.2951 -33.1922 266° West  Level Estimated
11:56AM 50.2862 -33.3798 266° West  Level Estimated
11:57AM 50.2770 -33.5673 266° West  Level Estimated
11:58AM 50.2676 -33.7548 266° West  Level Estimated
11:59AM 50.2578 -33.9422 265° West  Level Estimated
12:00PM 50.2477 -34.1295 265° West  Level Estimated
12:01PM 50.2373 -34.3168 265° West  Level Estimated
12:02PM 50.2267 -34.5039 265° West  Level Estimated
12:03PM 50.2157 -34.6910 265° West  Level Estimated
12:04PM 50.2044 -34.8780 265° West  Level Estimated
12:05PM 50.1929 -35.0649 265° West  Level Estimated
12:06PM 50.1810 -35.2517 264° West  Level Estimated
12:07PM 50.1688 -35.4384 264° West  Level Estimated
12:08PM 50.1563 -35.6250 264° West  Level Estimated
12:09PM 50.1436 -35.8115 264° West  Level Estimated
12:10PM 50.1305 -35.9979 264° West  Level Estimated
12:11PM 50.1171 -36.1842 264° West  Level Estimated
12:12PM 50.1035 -36.3704 264° West  Level Estimated
12:13PM 50.0895 -36.5565 263° West  Level Estimated
12:14PM 50.0753 -36.7425 263° West  Level Estimated
12:15PM 50.0607 -36.9284 263° West  Level Estimated
12:16PM 50.0458 -37.1142 263° West  Level Estimated
12:17PM 50.0307 -37.2998 263° West  Level Estimated
12:18PM 50.0153 -37.4853 263° West  Level Estimated
12:19PM 49.9995 -37.6707 263° West  Level Estimated
12:20PM 49.9835 -37.8560 262° West  Level Estimated
12:21PM 49.9672 -38.0412 262° West  Level Estimated
12:22PM 49.9505 -38.2262 262° West  Level Estimated
12:23PM 49.9336 -38.4111 262° West  Level Estimated
12:24PM 49.9164 -38.5959 262° West  Level Estimated
12:25PM 49.8989 -38.7805 262° West  Level Estimated
12:26PM 49.8811 -38.9650 262° West  Level Estimated
12:27PM 49.8630 -39.1494 261° West  Level Estimated
12:28PM 49.8446 -39.3336 261° West  Level Estimated
12:29PM 49.8259 -39.5177 261° West  Level Estimated
12:30PM 49.8070 -39.7017 261° West  Level Estimated
12:31PM 49.7877 -39.8855 261° West  Level Estimated
12:32PM 49.7682 -40.0691 261° West  Level Estimated
12:33PM 49.7483 -40.2526 261° West  Level Estimated
12:34PM 49.7282 -40.4360 260° West  Level Estimated
12:35PM 49.7078 -40.6192 260° West  Level Estimated
12:36PM 49.6871 -40.8022 260° West  Level Estimated
12:37PM 49.6661 -40.9851 260° West  Level Estimated
12:38PM 49.6448 -41.1679 260° West  Level Estimated
12:39PM 49.6232 -41.3504 260° West  Level Estimated
12:40PM 49.6014 -41.5328 260° West  Level Estimated
12:40PM 44.0000 -40.0000 266° West 455 524 33,000  Level New York Oceanic (ODAPS)
12:41PM 49.5792 -41.7151 259° West  Level Estimated
12:42PM 49.5568 -41.8971 259° West  Level Estimated
12:43PM 49.5341 -42.0791 259° West  Level Estimated
12:44PM 49.5111 -42.2608 259° West  Level Estimated
12:45PM 49.4878 -42.4424 259° West  Level Estimated
12:46PM 49.4642 -42.6237 259° West  Level Estimated
12:47PM 43.9143 -41.3971 265° West 455 524 33,000  Level FlightAware Transoceanic
12:48PM 43.9024 -41.5714 265° West 455 524 33,000  Level FlightAware Transoceanic
12:49PM 43.8903 -41.7457 264° West 455 524 33,000  Level FlightAware Transoceanic
12:50PM 43.8778 -41.9199 264° West 455 524 33,000  Level FlightAware Transoceanic
12:51PM 43.8652 -42.0940 264° West 455 524 33,000  Level FlightAware Transoceanic
12:52PM 43.8522 -42.2681 264° West 455 524 33,000  Level FlightAware Transoceanic
12:53PM 43.8390 -42.4421 264° West 455 524 33,000  Level FlightAware Transoceanic
12:54PM 43.8255 -42.6160 264° West 455 524 33,000  Level FlightAware Transoceanic
12:55PM 43.8117 -42.7898 264° West 455 524 33,000  Level FlightAware Transoceanic
12:56PM 43.7977 -42.9635 264° West 455 524 33,000  Level FlightAware Transoceanic
12:57PM 43.7834 -43.1372 263° West 455 524 33,000  Level FlightAware Transoceanic
12:58PM 43.7689 -43.3107 263° West 455 524 33,000  Level FlightAware Transoceanic
12:59PM 43.7541 -43.4842 263° West 455 524 33,000  Level FlightAware Transoceanic
01:00PM 43.7390 -43.6576 263° West 455 524 33,000  Level FlightAware Transoceanic
01:01PM 43.7237 -43.8309 263° West 455 524 33,000  Level FlightAware Transoceanic
01:02PM 43.7081 -44.0041 263° West 455 524 33,000  Level FlightAware Transoceanic
01:03PM 43.6922 -44.1773 263° West 455 524 33,000  Level FlightAware Transoceanic
01:04PM 43.6761 -44.3503 263° West 455 524 33,000  Level FlightAware Transoceanic
01:05PM 43.6598 -44.5233 262° West 455 524 33,000  Level FlightAware Transoceanic
01:06PM 43.6431 -44.6961 262° West 455 524 33,000  Level FlightAware Transoceanic
01:07PM 43.6262 -44.8689 262° West 455 524 33,000  Level FlightAware Transoceanic
01:08PM 43.6091 -45.0415 262° West 455 524 33,000  Level FlightAware Transoceanic
01:09PM 43.5917 -45.2141 262° West 455 524 33,000  Level FlightAware Transoceanic
01:10PM 43.5740 -45.3865 262° West 455 524 33,000  Level FlightAware Transoceanic
01:11PM 43.5561 -45.5589 262° West 455 524 33,000  Level FlightAware Transoceanic
01:12PM 43.5379 -45.7311 262° West 455 524 33,000  Level FlightAware Transoceanic
01:13PM 43.5194 -45.9033 262° West 455 524 33,000  Level FlightAware Transoceanic
01:14PM 43.5007 -46.0753 261° West 455 524 33,000  Level FlightAware Transoceanic
01:15PM 43.4817 -46.2472 261° West 455 524 33,000  Level FlightAware Transoceanic
01:15PM 43.5000 -46.1000 261° West 450 518 33,000  Level New York Oceanic (ODAPS)
01:16PM 43.4625 -46.4191 261° West 455 524 33,000  Level FlightAware Transoceanic
01:17PM 43.4430 -46.5908 261° West 455 524 33,000  Level FlightAware Transoceanic
01:18PM 43.4233 -46.7624 261° West 455 524 33,000  Level FlightAware Transoceanic
01:19PM 43.4033 -46.9339 261° West 455 524 33,000  Level FlightAware Transoceanic
01:20PM 43.3831 -47.1053 261° West 455 524 33,000  Level FlightAware Transoceanic
01:21PM 43.3679 -47.2440 261° West 450 518 33,000  Level FlightAware Transoceanic
01:22PM 43.3481 -47.4070 260° West 450 518 33,000  Level FlightAware Transoceanic
01:23PM 43.3280 -47.5699 260° West 450 518 33,000  Level FlightAware Transoceanic
01:24PM 43.3078 -47.7327 260° West 450 518 33,000  Level FlightAware Transoceanic
01:25PM 43.2873 -47.8954 260° West 450 518 33,000  Level FlightAware Transoceanic
01:26PM 43.2666 -48.0580 260° West 450 518 33,000  Level FlightAware Transoceanic
01:27PM 43.2456 -48.2205 260° West 450 518 33,000  Level FlightAware Transoceanic
01:28PM 43.2244 -48.3828 260° West 450 518 33,000  Level FlightAware Transoceanic
01:29PM 43.2030 -48.5451 260° West 450 518 33,000  Level FlightAware Transoceanic
01:30PM 43.1814 -48.7072 260° West 450 518 33,000  Level FlightAware Transoceanic
01:31PM 43.1595 -48.8692 259° West 450 518 33,000  Level FlightAware Transoceanic
01:32PM 43.1374 -49.0311 259° West 450 518 33,000  Level FlightAware Transoceanic
01:33PM 43.1151 -49.1929 259° West 450 518 33,000  Level FlightAware Transoceanic
01:34PM 43.0925 -49.3546 259° West 450 518 33,000  Level FlightAware Transoceanic
01:35PM 43.0697 -49.5161 259° West 450 518 33,000  Level FlightAware Transoceanic
01:36PM 43.0467 -49.6775 259° West 450 518 33,000  Level FlightAware Transoceanic
01:37PM 43.0235 -49.8388 259° West 450 518 33,000  Level FlightAware Transoceanic
01:38PM 43.0000 -50.0000 266° West 450 518 33,000  Level FlightAware Transoceanic
01:38PM 43.0000 -50.0000 266° West 451 519 33,000  Level New York Oceanic (ODAPS)
01:39PM 42.9902 -50.1748 266° West 450 518 33,000  Level FlightAware Transoceanic
01:40PM 42.9801 -50.3495 265° West 450 518 33,000  Level FlightAware Transoceanic
01:41PM 42.9698 -50.5241 265° West 450 518 33,000  Level FlightAware Transoceanic
01:42PM 42.9592 -50.6987 265° West 450 518 33,000  Level FlightAware Transoceanic
01:42PM 42.9500 -50.7833 265° West 451 519 33,000  Level New York Oceanic (ODAPS)
01:43PM 42.9484 -50.8733 265° West 450 518 33,000  Level FlightAware Transoceanic
01:44PM 42.9384 -51.0300 265° West 451 519 33,000  Level FlightAware Transoceanic
01:45PM 42.9272 -51.2015 265° West 451 519 33,000  Level FlightAware Transoceanic
01:46PM 42.9158 -51.3728 265° West 451 519 33,000  Level FlightAware Transoceanic
01:47PM 42.9041 -51.5442 265° West 451 519 33,000  Level FlightAware Transoceanic
01:48PM 42.8922 -51.7154 265° West 451 519 33,000  Level FlightAware Transoceanic
01:49PM 42.8704 -51.9705 264° West 451 519 33,000  Level FlightAware Transoceanic
01:50PM 42.8581 -52.1399 264° West 451 519 33,000  Level FlightAware Transoceanic
01:51PM 42.8455 -52.3091 264° West 451 519 33,000  Level FlightAware Transoceanic
01:52PM 42.8326 -52.4783 264° West 451 519 33,000  Level FlightAware Transoceanic
01:53PM 42.8195 -52.6475 264° West 451 519 33,000  Level FlightAware Transoceanic
01:54PM 42.8061 -52.8165 264° West 451 519 33,000  Level FlightAware Transoceanic
01:55PM 42.7925 -52.9855 264° West 451 519 33,000  Level FlightAware Transoceanic
01:56PM 42.7787 -53.1544 264° West 451 519 33,000  Level FlightAware Transoceanic
01:56PM 42.7833 -53.1333 264° West 451 519 33,000  Level New York Oceanic (ODAPS)
01:57PM 42.7646 -53.3232 263° West 451 519 33,000  Level FlightAware Transoceanic
01:58PM 42.7502 -53.4920 263° West 451 519 33,000  Level FlightAware Transoceanic
01:59PM 42.7356 -53.6607 263° West 451 519 33,000  Level FlightAware Transoceanic
02:00PM 42.7208 -53.8293 263° West 451 519 33,000  Level FlightAware Transoceanic
02:01PM 42.7057 -53.9978 263° West 451 519 33,000  Level FlightAware Transoceanic
02:02PM 42.6903 -54.1662 263° West 451 519 33,000  Level FlightAware Transoceanic
02:03PM 42.6788 -54.3172 263° West 451 519 33,000  Level FlightAware Transoceanic
02:04PM 42.6628 -54.4860 263° West 451 519 33,000  Level FlightAware Transoceanic
02:05PM 42.6467 -54.6547 263° West 451 519 33,000  Level FlightAware Transoceanic
02:06PM 42.6302 -54.8233 262° West 451 519 33,000  Level FlightAware Transoceanic
02:07PM 42.6136 -54.9918 262° West 451 519 33,000  Level FlightAware Transoceanic
02:08PM 42.5967 -55.1603 262° West 451 519 33,000  Level FlightAware Transoceanic
02:09PM 42.5795 -55.3286 262° West 451 519 33,000  Level FlightAware Transoceanic
02:10PM 42.5621 -55.4969 262° West 451 519 33,000  Level FlightAware Transoceanic
02:10PM 42.5667 -55.4667 262° West 449 517 33,000  Level New York Oceanic (ODAPS)
02:11PM 42.5444 -55.6650 262° West 451 519 33,000  Level FlightAware Transoceanic
02:12PM 42.5265 -55.8331 262° West 451 519 33,000  Level FlightAware Transoceanic
02:13PM 42.5084 -56.0010 262° West 451 519 33,000  Level FlightAware Transoceanic
02:14PM 42.4900 -56.1689 261° West 451 519 33,000  Level FlightAware Transoceanic
02:15PM 42.4713 -56.3367 261° West 451 519 33,000  Level FlightAware Transoceanic
02:16PM 42.4524 -56.5043 261° West 451 519 33,000  Level FlightAware Transoceanic
02:17PM 42.4370 -56.6496 261° West 449 517 33,000  Level FlightAware Transoceanic
02:18PM 42.4174 -56.8182 261° West 449 517 33,000  Level FlightAware Transoceanic
02:19PM 42.3977 -56.9867 261° West 449 517 33,000  Level FlightAware Transoceanic
02:20PM 42.3777 -57.1551 261° West 449 517 33,000  Level FlightAware Transoceanic
02:21PM 42.3574 -57.3233 261° West 449 517 33,000  Level FlightAware Transoceanic
02:22PM 42.3369 -57.4915 261° West 449 517 33,000  Level FlightAware Transoceanic
02:23PM 42.3161 -57.6595 260° West 449 517 33,000  Level FlightAware Transoceanic
02:24PM 42.2951 -57.8275 260° West 449 517 33,000  Level FlightAware Transoceanic
02:24PM 42.3000 -57.8000 260° West 453 521 33,000  Level New York Oceanic (ODAPS)
02:25PM 42.2739 -57.9953 260° West 449 517 33,000  Level FlightAware Transoceanic
02:26PM 42.2524 -58.1630 260° West 449 517 33,000  Level FlightAware Transoceanic
02:27PM 42.2307 -58.3306 260° West 449 517 33,000  Level FlightAware Transoceanic
02:28PM 42.2087 -58.4981 260° West 449 517 33,000  Level FlightAware Transoceanic
02:29PM 42.1865 -58.6655 260° West 449 517 33,000  Level FlightAware Transoceanic
02:30PM 42.1668 -58.8180 260° West 453 521 33,000  Level FlightAware Transoceanic
02:31PM 42.1437 -58.9872 260° West 453 521 33,000  Level FlightAware Transoceanic
02:32PM 42.1203 -59.1563 259° West 453 521 33,000  Level FlightAware Transoceanic
02:33PM 42.0968 -59.3253 259° West 453 521 33,000  Level FlightAware Transoceanic
02:34PM 42.0729 -59.4942 259° West 453 521 33,000  Level FlightAware Transoceanic
02:35PM 42.0489 -59.6629 259° West 453 521 33,000  Level FlightAware Transoceanic
02:36PM 42.0246 -59.8315 259° West 453 521 33,000  Level FlightAware Transoceanic
02:37PM 42.0000 -60.0000 263° West 453 521 33,000  Level FlightAware Transoceanic
02:37PM 42.0000 -60.0000 263° West 448 516 33,000  Level New York Oceanic (ODAPS)
02:38PM 41.9840 -60.1687 263° West 453 521 33,000  Level FlightAware Transoceanic
02:39PM 41.9677 -60.3374 263° West 453 521 33,000  Level FlightAware Transoceanic
02:40PM 41.9511 -60.5060 262° West 453 521 33,000  Level FlightAware Transoceanic
02:41PM 41.9343 -60.6744 262° West 453 521 33,000  Level FlightAware Transoceanic
02:42PM 41.9173 -60.8428 262° West 453 521 33,000  Level FlightAware Transoceanic
02:43PM 41.9000 -61.0111 262° West 453 521 33,000  Level FlightAware Transoceanic
02:44PM 41.8853 -61.1520 262° West 448 516 33,000  Level FlightAware Transoceanic
02:45PM 41.8680 -61.3162 262° West 448 516 33,000  Level FlightAware Transoceanic
02:46PM 41.8505 -61.4803 262° West 448 516 33,000  Level FlightAware Transoceanic
02:47PM 41.8327 -61.6443 262° West 448 516 33,000  Level FlightAware Transoceanic
02:48PM 41.8147 -61.8083 262° West 448 516 33,000  Level FlightAware Transoceanic
02:49PM 41.7964 -61.9721 261° West 448 516 33,000  Level FlightAware Transoceanic
02:50PM 41.7779 -62.1359 261° West 448 516 33,000  Level FlightAware Transoceanic
02:51PM 41.7592 -62.2996 261° West 448 516 33,000  Level FlightAware Transoceanic
02:51PM 41.7333 -62.4667 261° West 450 518 33,000  Level New York Oceanic (ODAPS)
02:52PM 41.7402 -62.4632 261° West 448 516 33,000  Level FlightAware Transoceanic
02:53PM 41.7211 -62.6266 261° West 448 516 33,000  Level FlightAware Transoceanic
02:54PM 41.7016 -62.7900 261° West 448 516 33,000  Level FlightAware Transoceanic
02:55PM 41.6820 -62.9533 261° West 448 516 33,000  Level FlightAware Transoceanic
02:56PM 41.6621 -63.1165 261° West 448 516 33,000  Level FlightAware Transoceanic
02:57PM 41.6420 -63.2795 261° West 448 516 33,000  Level FlightAware Transoceanic
02:58PM 41.6117 -63.4813 261° West 450 518 33,000  Level FlightAware Transoceanic
02:59PM 41.5906 -63.6501 260° West 450 518 33,000  Level FlightAware Transoceanic
03:00PM 41.5692 -63.8187 260° West 450 518 33,000  Level FlightAware Transoceanic
03:01PM 41.5476 -63.9872 260° West 450 518 33,000  Level FlightAware Transoceanic
03:02PM 41.5257 -64.1556 260° West 450 518 33,000  Level FlightAware Transoceanic
03:03PM 41.5036 -64.3239 260° West 450 518 33,000  Level FlightAware Transoceanic
03:04PM 41.4813 -64.4921 260° West 450 518 33,000  Level FlightAware Transoceanic
03:05PM 41.4586 -64.6601 260° West 450 518 33,000  Level FlightAware Transoceanic
03:05PM 41.4500 -64.7500 260° West 441 507 33,000  Level New York Oceanic (ODAPS)
03:06PM 41.4358 -64.8280 260° West 450 518 33,000  Level FlightAware Transoceanic
03:07PM 41.4127 -64.9959 260° West 450 518 33,000  Level FlightAware Transoceanic
03:08PM 41.3894 -65.1636 259° West 450 518 33,000  Level FlightAware Transoceanic
03:09PM 41.3658 -65.3311 259° West 450 518 33,000  Level FlightAware Transoceanic
03:10PM 41.3419 -65.4986 259° West 450 518 33,000  Level FlightAware Transoceanic
03:11PM 41.3179 -65.6659 259° West 450 518 33,000  Level FlightAware Transoceanic
03:12PM 41.2999 -65.8029 259° West 441 507 33,000  Level FlightAware Transoceanic
03:13PM 41.2777 -65.9529 259° West 441 507 33,000  Level FlightAware Transoceanic
03:14PM 41.2552 -66.1028 259° West 441 507 33,000  Level FlightAware Transoceanic
03:15PM 41.2326 -66.2526 259° West 441 507 33,000  Level FlightAware Transoceanic
03:16PM 41.2098 -66.4023 258° West 441 507 33,000  Level FlightAware Transoceanic
03:17PM 41.1868 -66.5519 258° West 441 507 33,000  Level FlightAware Transoceanic
03:18PM 41.1636 -66.7013 258° West 441 507 33,000  Level FlightAware Transoceanic
03:19PM 41.1403 -66.8507 258° West 441 507 33,000  Level FlightAware Transoceanic
03:20PM 41.1167 -67.0000 276° West 441 507 33,000 1,440 Level FlightAware Transoceanic
03:20PM 41.1217 -67.0794 276° West 439 505 34,900  Climbing New York Center
03:21PM 41.1306 -67.1798 276° West 441 507 33,000 360 Descending FlightAware Transoceanic
03:22PM 41.1433 -67.3526 276° West  Level FlightAware Approximate
03:22PM 41.1514 -67.4881 276° West 437 503 35,900  Level Boston Center
03:23PM 41.1647 -67.6472 276° West 437 503 35,900 -2,520 Level Boston Center
03:24PM 41.1706 -67.7199 275° West 441 507 33,000  Descending FlightAware Transoceanic
03:24PM 41.1775 -67.8033 276° West 437 503 35,900 1,560 Climbing Boston Center
03:25PM 41.1830 -67.8791 276° West  Level FlightAware Approximate
03:25PM 41.1858 -67.9603 274° West 437 503 35,900  Level Boston Center
03:26PM 41.1942 -68.1197 274° West 437 503 35,900  Level Boston Center
03:28PM 41.1993 -68.3064 272° West  Level FlightAware Approximate
03:32PM 41.2244 -68.8695 274° West  Level FlightAware Approximate
03:32PM 41.2417 -69.0831 274° West 437 503 35,900  Level Boston Center
03:33PM 41.2483 -69.2428 273° West 437 503 35,900  Level Boston Center
03:34PM 41.2550 -69.4056 273° West 437 503 35,900  Level Boston Center
03:35PM 41.2472 -69.4261 274° West  Level FlightAware Approximate
03:36PM 41.2532 -69.5929 273° West  Level FlightAware Approximate
03:36PM 41.2633 -69.7364 273° West 432 497 35,900  Level Boston Center
03:42PM 41.2250 -70.5910 273° West 444 511 36,000  Climbing FlightAware
03:43PM 41.2030 -70.7300 258° West 443 510 36,000  Level FlightAware
03:44PM 41.1860 -70.8370 258° West 443 510 36,000  Level FlightAware
03:44PM 41.1640 -70.9740 258° West 440 506 36,000  Level FlightAware
03:45PM 41.1470 -71.0810 258° West 439 505 36,000  Level FlightAware
03:46PM 41.1280 -71.1930 257° West 439 505 36,000  Level FlightAware
03:46PM 41.1120 -71.2930 258° West 438 504 36,000  Level FlightAware
03:47PM 41.0930 -71.4100 258° West 438 504 36,000  Level FlightAware
03:48PM 41.0750 -71.5200 258° West 438 504 36,000  Level FlightAware
03:49PM 41.0550 -71.6390 257° West 438 504 36,000  Level FlightAware
03:49PM 41.0380 -71.7370 257° West 438 504 36,000  Level FlightAware
03:50PM 41.0180 -71.8580 258° West 439 505 36,000  Level FlightAware
03:51PM 41.0000 -71.9650 257° West 440 506 36,000  Level FlightAware
03:51PM 40.9790 -72.0830 257° West 441 507 36,000  Level FlightAware
03:52PM 40.9733 -72.1174 258° West 441 507 36,000  Level FlightAware ADS-B
03:52PM 40.9588 -72.2004 257° West 441 507 36,000  Level FlightAware ADS-B
03:52PM 40.9508 -72.2455 257° West 442 509 36,000  Level FlightAware ADS-B
03:53PM 40.9296 -72.3288 251° West 442 509 36,000  Level FlightAware ADS-B
03:53PM 40.9054 -72.4061 248° West 442 509 36,000  Level FlightAware ADS-B
03:54PM 40.8805 -72.4824 247° West 442 509 36,000  Level FlightAware ADS-B
03:55PM 40.8506 -72.5741 247° West 443 510 36,000  Level FlightAware ADS-B
03:55PM 40.8249 -72.6531 247° West 443 510 36,000  Level FlightAware ADS-B
03:56PM 40.7964 -72.7402 247° West 444 511 36,000  Level FlightAware ADS-B
03:56PM 40.7710 -72.8184 247° West 444 511 36,000  Level FlightAware ADS-B
03:57PM 40.7464 -72.8930 246° West 444 511 36,000  Level FlightAware ADS-B
03:57PM 40.7215 -72.9688 247° West 444 511 36,000  Level FlightAware ADS-B
03:58PM 40.6940 -73.0524 247° West 443 510 36,000  Level FlightAware ADS-B
03:58PM 40.6677 -73.1317 246° West 443 510 36,000  Level FlightAware ADS-B
03:59PM 40.6407 -73.2132 246° West 442 509 36,000  Level FlightAware ADS-B
03:59PM 40.6160 -73.2871 246° West 442 509 36,000  Level FlightAware ADS-B
04:00PM 40.5897 -73.3660 246° West 441 507 36,000  Level FlightAware ADS-B
04:00PM 40.5648 -73.4402 246° West 441 507 36,000  Level FlightAware ADS-B
04:01PM 40.5336 -73.5337 246° West 441 507 36,000  Level FlightAware ADS-B
04:02PM 40.5041 -73.6207 246° West 441 507 36,000  Level FlightAware ADS-B
04:02PM 40.4789 -73.6955 246° West 441 507 36,000  Level FlightAware ADS-B
04:03PM 40.4479 -73.7871 246° West 441 507 36,000  Level FlightAware ADS-B
04:03PM 40.4279 -73.8659 252° West 440 506 36,000  Level FlightAware ADS-B
04:04PM 40.4185 -73.9186 257° West 440 506 36,000  Level FlightAware ADS-B
04:04PM 40.4056 -73.9965 258° West 439 505 36,000  Level FlightAware ADS-B
04:05PM 40.3926 -74.0751 258° West 439 505 36,000  Level FlightAware ADS-B
04:05PM 40.3793 -74.1558 258° West 440 506 36,000  Level FlightAware ADS-B
04:06PM 40.3655 -74.2412 258° West 438 504 36,000  Level FlightAware ADS-B
04:06PM 40.3518 -74.3256 258° West 439 505 36,000  Level FlightAware ADS-B
04:07PM 40.3381 -74.4104 258° West 438 504 36,000  Level FlightAware ADS-B
04:07PM 40.3249 -74.4905 258° West 438 504 36,000  Level FlightAware ADS-B
04:08PM 40.3118 -74.5695 258° West 437 503 36,000  Level FlightAware ADS-B
04:08PM 40.2977 -74.6529 258° West 438 504 36,000  Level FlightAware ADS-B
04:09PM 40.2839 -74.7346 258° West 438 504 36,000  Level FlightAware ADS-B
04:10PM 40.2674 -74.8317 257° West 439 505 36,000  Level FlightAware ADS-B
04:10PM 40.2530 -74.9166 257° West 440 506 36,000  Level FlightAware ADS-B
04:11PM 40.2393 -74.9967 257° West 441 507 36,000  Level FlightAware ADS-B
04:11PM 40.2254 -75.0788 258° West 441 507 36,000  Level FlightAware ADS-B
04:12PM 40.2110 -75.1636 257° West 442 509 36,000  Level FlightAware ADS-B
04:12PM 40.1962 -75.2492 257° West 442 509 36,000  Level FlightAware ADS-B
04:13PM 40.1824 -75.3286 257° West 441 507 36,000  Level FlightAware ADS-B
04:13PM 40.1682 -75.4110 257° West 441 507 36,000  Level FlightAware ADS-B
04:14PM 40.1552 -75.4844 257° West 440 506 36,000  Level FlightAware ADS-B
04:14PM 40.1511 -75.4999 251° West 439 505 36,000 -480 Level FlightAware ADS-B
04:14PM 40.1455 -75.5149 244° Southwest 438 504 35,900  Descending FlightAware ADS-B
04:14PM 40.1148 -75.5829 239° Southwest 437 503 36,000 60 Climbing FlightAware ADS-B
04:15PM 40.0849 -75.6548 241° Southwest 437 503 36,000  Level FlightAware ADS-B
04:15PM 40.0572 -75.7255 243° Southwest 437 503 36,000  Level FlightAware ADS-B
04:16PM 40.0227 -75.8057 241° Southwest 435 501 36,000  Level FlightAware ADS-B
04:17PM 39.9912 -75.8768 240° Southwest 435 501 36,000  Level FlightAware ADS-B
04:17PM 39.9600 -75.9467 240° Southwest 436 502 36,000  Level FlightAware ADS-B
04:18PM 39.9287 -76.0163 240° Southwest 437 503 36,000  Level FlightAware ADS-B
04:18PM 39.8948 -76.0908 239° Southwest 437 503 36,000  Level FlightAware ADS-B
04:19PM 39.8638 -76.1596 240° Southwest 438 504 36,000  Level FlightAware ADS-B
04:19PM 39.8330 -76.2274 239° Southwest 438 504 36,000  Level FlightAware ADS-B
04:20PM 39.8016 -76.2964 239° Southwest 438 504 36,000  Level FlightAware ADS-B
04:20PM 39.7680 -76.3700 239° Southwest 438 504 36,000  Level FlightAware ADS-B
04:21PM 39.7339 -76.4442 239° Southwest 439 505 36,000  Level FlightAware ADS-B
04:21PM 39.7019 -76.5140 239° Southwest 439 505 36,000  Level FlightAware ADS-B
04:22PM 39.6704 -76.5829 239° Southwest 439 505 36,000  Level FlightAware ADS-B
04:22PM 39.6386 -76.6520 239° Southwest 439 505 36,000  Level FlightAware ADS-B
04:23PM 39.6034 -76.7286 239° Southwest 439 505 36,000  Level FlightAware ADS-B
04:23PM 39.5707 -76.7994 239° Southwest 438 504 36,000  Level FlightAware ADS-B
04:24PM 39.5389 -76.8684 239° Southwest 436 502 36,000  Level FlightAware ADS-B
04:24PM 39.5320 -76.8829 238° Southwest 435 501 36,000  Level FlightAware ADS-B
04:24PM 39.5078 -76.9230 232° Southwest 430 495 36,000  Level FlightAware ADS-B
04:24PM 39.4964 -76.9374 224° Southwest 429 494 36,000  Level FlightAware ADS-B
04:25PM 39.4406 -76.9959 219° Southwest 428 493 36,000  Level FlightAware ADS-B
04:26PM 39.3920 -77.0519 222° Southwest 427 491 36,000 -420 Level FlightAware ADS-B
04:26PM 39.3455 -77.1025 220° Southwest 424 488 35,600 -1,200 Descending FlightAware ADS-B
04:27PM 39.2854 -77.1650 219° Southwest 430 495 34,600 -1,320 Descending FlightAware ADS-B
04:27PM 39.2334 -77.2184 219° Southwest 434 499 34,000 -600 Descending FlightAware ADS-B
04:28PM 39.1829 -77.2701 218° Southwest 436 502 34,000  Level FlightAware ADS-B
04:28PM 39.1249 -77.3298 219° Southwest 438 504 34,000  Level FlightAware ADS-B
04:29PM 39.0670 -77.3900 219° Southwest 439 505 34,000  Level FlightAware
04:29PM 39.0307 -77.4272 219° Southwest 439 505 34,000  Level FlightAware ADS-B
04:30PM 38.9659 -77.4940 219° Southwest 435 501 34,000  Level FlightAware ADS-B
04:31PM 38.8806 -77.5817 219° Southwest 434 499 34,000  Level FlightAware ADS-B
04:32PM 38.8070 -77.6580 219° Southwest 434 499 34,000  Level FlightAware
04:33PM 38.7380 -77.7280 218° Southwest 432 497 34,000  Level FlightAware
04:33PM 38.6800 -77.7900 220° Southwest 434 499 34,000  Level FlightAware
04:34PM 38.6240 -77.8760 230° Southwest 437 503 34,000  Level FlightAware
04:35PM 38.5620 -77.9840 234° Southwest 438 504 34,000  Level FlightAware
04:36PM 38.5150 -78.0660 234° Southwest 437 503 34,000  Level FlightAware
04:36PM 38.4530 -78.1710 233° Southwest 436 502 34,000  Level FlightAware
04:37PM 38.4160 -78.2340 233° Southwest 434 499 34,000  Level FlightAware
04:38PM 38.3680 -78.3150 233° Southwest 430 495 34,000  Level FlightAware
04:40PM 38.2220 -78.5640 233° Southwest 430 495 34,000  Level FlightAware
04:43PM 37.9930 -78.9510 233° Southwest 34,000  Level FlightAware
04:43PM 37.9610 -79.0030 232° Southwest 432 497 34,000  Level FlightAware
04:44PM 37.9110 -79.0870 233° Southwest 432 497 34,000  Level FlightAware
04:45PM 37.8700 -79.1560 233° Southwest 432 497 34,000  Level FlightAware
04:45PM 37.8290 -79.2250 233° Southwest 432 497 34,000  Level FlightAware
04:46PM 37.7880 -79.2930 233° Southwest 432 497 34,000  Level FlightAware
04:47PM 37.7370 -79.3790 233° Southwest 432 497 34,000  Level FlightAware
04:48PM 37.6960 -79.4480 233° Southwest 432 497 34,000  Level FlightAware
04:48PM 37.6560 -79.5160 233° Southwest 432 497 34,000  Level FlightAware
04:49PM 37.6150 -79.5850 233° Southwest 432 497 34,000  Level FlightAware
04:50PM 37.5740 -79.6530 233° Southwest 432 497 34,000  Level FlightAware
04:50PM 37.5330 -79.7220 233° Southwest 432 497 34,000  Level FlightAware
04:51PM 37.4820 -79.8070 233° Southwest 432 497 34,000  Level FlightAware
04:52PM 37.4410 -79.8760 233° Southwest 432 497 34,000  Level FlightAware
04:52PM 37.4000 -79.9440 233° Southwest 432 497 34,000  Level FlightAware
04:53PM 37.3590 -80.0120 233° Southwest 432 497 34,000  Level FlightAware
04:54PM 36.9814 -80.3647 226° Southwest 464 534 34,000  Level Atlanta Center
05:00PM 36.7616 -80.6443 226° Southwest  Level FlightAware Approximate
05:01PM 36.4894 -81.1111 226° Southwest 473 544 34,000  Level FlightAware ADS-B
05:01PM 36.3838 -81.2611 229° Southwest 467 537 34,000  Level FlightAware ADS-B
05:02PM 36.3382 -81.3183 225° Southwest 465 535 34,000  Level FlightAware ADS-B
05:02PM 36.2893 -81.3791 225° Southwest 460 529 34,000  Level FlightAware ADS-B
05:03PM 36.2443 -81.4350 225° Southwest 457 526 34,000  Level FlightAware ADS-B
05:05PM 36.0547 -81.6710 225° Southwest 447 514 34,000  Level FlightAware ADS-B
05:06PM 36.0047 -81.7330 225° Southwest 446 513 34,000  Level FlightAware ADS-B
05:06PM 35.9601 -81.7881 225° Southwest 445 512 34,000  Level FlightAware ADS-B
05:07PM 35.9162 -81.8423 225° Southwest 445 512 34,000  Level FlightAware ADS-B
05:07PM 35.8725 -81.8962 225° Southwest 446 513 34,000  Level FlightAware ADS-B
05:08PM 35.8275 -81.9513 225° Southwest 448 516 34,000  Level FlightAware ADS-B
05:08PM 35.7829 -82.0061 225° Southwest 450 518 34,000  Level FlightAware ADS-B
05:09PM 35.7342 -82.0660 225° Southwest 450 518 34,000  Level FlightAware ADS-B
05:09PM 35.6893 -82.1207 225° Southwest 451 519 34,000  Level FlightAware ADS-B
05:10PM 35.6450 -82.1748 225° Southwest 451 519 34,000  Level FlightAware ADS-B
05:10PM 35.6004 -82.2293 225° Southwest 453 521 34,000  Level FlightAware ADS-B
05:11PM 35.5556 -82.2835 225° Southwest 454 522 34,000  Level FlightAware ADS-B
05:11PM 35.5086 -82.3407 225° Southwest 456 525 34,000  Level FlightAware ADS-B
05:12PM 35.4617 -82.3975 225° Southwest 457 526 34,000  Level FlightAware ADS-B
05:12PM 35.4160 -82.4529 225° Southwest 458 527 34,000  Level FlightAware ADS-B
05:13PM 35.3705 -82.5075 224° Southwest 458 527 34,000 -120 Level FlightAware ADS-B
05:13PM 35.3197 -82.5624 221° Southwest 453 521 33,900 -480 Descending FlightAware ADS-B
05:14PM 35.2692 -82.6148 220° Southwest 450 518 33,500 -780 Descending FlightAware ADS-B
05:14PM 35.2201 -82.6666 221° Southwest 444 511 33,100 -660 Descending FlightAware ADS-B
05:15PM 35.1951 -82.6932 221° Southwest 440 506 33,000 -840 Descending FlightAware ADS-B
05:15PM 35.1484 -82.7426 221° Southwest 439 505 32,500 -1,020 Descending FlightAware ADS-B
05:16PM 35.1016 -82.7926 221° Southwest 438 504 32,000 -900 Descending FlightAware ADS-B
05:16PM 35.0550 -82.8422 221° Southwest 432 497 31,600 -900 Descending FlightAware ADS-B
05:17PM 35.0092 -82.8908 221° Southwest 430 495 31,100 -1,020 Descending FlightAware ADS-B
05:17PM 34.9615 -82.9413 221° Southwest 429 494 30,600 -1,260 Descending FlightAware ADS-B
05:18PM 34.9159 -82.9893 221° Southwest 429 494 29,800 -1,380 Descending FlightAware ADS-B
05:18PM 34.8758 -83.0310 220° Southwest 426 490 29,300 -1,140 Descending FlightAware ADS-B
05:19PM 34.8174 -83.0929 221° Southwest 416 479 28,600 -1,620 Descending FlightAware ADS-B
05:19PM 34.7642 -83.1485 221° Southwest 419 482 27,300 -1,980 Descending FlightAware ADS-B
05:20PM 34.7190 -83.1957 221° Southwest 418 481 26,400 -1,860 Descending FlightAware ADS-B
05:20PM 34.6686 -83.2483 221° Southwest 416 479 25,300 -2,040 Descending FlightAware ADS-B
05:21PM 34.6212 -83.2977 221° Southwest 410 472 24,100 -2,340 Descending FlightAware ADS-B
05:21PM 34.5781 -83.3426 221° Southwest 404 465 22,900 -2,220 Descending FlightAware ADS-B
05:23PM 34.4920 -83.4320 221° Southwest 391 450 20,700 -2,100 Descending FlightAware
05:23PM 34.4380 -83.4880 221° Southwest 382 440 19,300 -2,040 Descending FlightAware
05:24PM 34.3870 -83.5410 221° Southwest 374 430 18,000 -1,980 Descending FlightAware
05:25PM 34.3260 -83.6030 220° Southwest 363 418 16,500 -2,040 Descending FlightAware
05:25PM 34.2710 -83.6600 221° Southwest 354 407 15,000 -1,920 Descending FlightAware
05:26PM 34.2210 -83.7120 221° Southwest 348 400 13,800 -1,920 Descending FlightAware
05:27PM 34.1720 -83.7620 220° Southwest 341 392 12,500 -1,200 Descending FlightAware
05:27PM 34.1190 -83.8170 221° Southwest 336 387 12,100 -540 Descending FlightAware
05:28PM 34.0710 -83.8660 220° Southwest 330 380 11,800 -660 Descending FlightAware
05:29PM 34.0230 -83.9170 221° Southwest 283 326 11,200 -960 Descending FlightAware
05:30PM 33.9850 -83.9570 221° Southwest 261 300 10,500 -1,140 Descending FlightAware
05:30PM 33.9680 -83.9650 201° Southwest 264 304 10,200 -1,380 Descending FlightAware
05:30PM 33.9360 -83.9610 174° South 277 319 9,600 -1,380 Descending FlightAware
05:31PM 33.9110 -83.9560 171° South 265 305 9,200 -840 Descending FlightAware
05:31PM 33.8840 -83.9510 171° South 259 298 9,000 -120 Descending FlightAware
05:31PM 33.8480 -83.9450 172° South 232 267 9,100 60 Climbing FlightAware
05:32PM 33.8210 -83.9390 170° South 232 267 9,100  Level FlightAware
05:32PM 33.8060 -83.9360 171° South 232 267 9,100 -180 Level FlightAware
05:33PM 33.7730 -83.9290 170° South 227 261 9,000 -180 Descending FlightAware
05:33PM 33.7570 -83.9260 171° South 232 267 9,000 -600 Level FlightAware
05:33PM 33.7320 -83.9210 171° South 230 265 8,600 -1,080 Descending FlightAware
05:34PM 33.7060 -83.9210 180° South 227 261 8,100 -1,080 Descending FlightAware
05:34PM 33.6710 -83.9420 207° Southwest 204 235 7,400 -600 Descending FlightAware
05:35PM 33.6630 -83.9650 247° West 204 235 7,400 -420 Level FlightAware
05:36PM 33.6333 -84.0167 247° West 208 239 7,000 -540 Descending Atlanta TRACON
05:37PM 33.6333 -84.0833 270° West 179 206 6,500 -720 Descending Atlanta TRACON
05:38PM 33.6333 -84.1500 270° West 180 207 5,500 -1,020 Descending Atlanta TRACON
05:40PM 33.6333 -84.2667 270° West 188 216 3,500 -1,020 Descending Atlanta TRACON